sensor_id;sensor_type;location;lat;lon;timestamp;P1;durP1;ratioP1;P2;durP2;ratioP2
70301;SDS011;57706;56.326;43.882;2023-02-11T00:00:15;25.15;;;9.63;;
70301;SDS011;57706;56.326;43.882;2023-02-11T00:02:41;23.80;;;9.45;;
70301;SDS011;57706;56.326;43.882;2023-02-11T00:05:07;22.00;;;9.73;;
70301;SDS011;57706;56.326;43.882;2023-02-11T00:07:34;21.20;;;9.20;;
70301;SDS011;57706;56.326;43.882;2023-02-11T00:10:00;20.30;;;8.85;;
70301;SDS011;57706;56.326;43.882;2023-02-11T00:12:35;21.42;;;10.35;;
70301;SDS011;57706;56.326;43.882;2023-02-11T00:15:02;23.00;;;9.32;;
70301;SDS011;57706;56.326;43.882;2023-02-11T00:17:31;21.35;;;10.07;;
70301;SDS011;57706;56.326;43.882;2023-02-11T00:19:57;21.63;;;9.50;;
70301;SDS011;57706;56.326;43.882;2023-02-11T00:22:22;20.65;;;10.07;;
70301;SDS011;57706;56.326;43.882;2023-02-11T00:24:49;16.80;;;8.18;;
70301;SDS011;57706;56.326;43.882;2023-02-11T00:27:14;22.58;;;9.65;;
70301;SDS011;57706;56.326;43.882;2023-02-11T00:29:40;23.58;;;8.93;;
70301;SDS011;57706;56.326;43.882;2023-02-11T00:32:06;20.52;;;7.90;;
70301;SDS011;57706;56.326;43.882;2023-02-11T00:34:33;19.98;;;7.82;;
70301;SDS011;57706;56.326;43.882;2023-02-11T00:37:18;19.33;;;8.38;;
70301;SDS011;57706;56.326;43.882;2023-02-11T00:39:44;16.00;;;7.43;;
70301;SDS011;57706;56.326;43.882;2023-02-11T00:42:10;22.13;;;9.45;;
70301;SDS011;57706;56.326;43.882;2023-02-11T00:44:39;18.75;;;9.07;;
70301;SDS011;57706;56.326;43.882;2023-02-11T00:47:04;21.92;;;8.98;;
70301;SDS011;57706;56.326;43.882;2023-02-11T00:49:30;21.77;;;9.60;;
70301;SDS011;57706;56.326;43.882;2023-02-11T00:51:56;18.20;;;8.80;;
70301;SDS011;57706;56.326;43.882;2023-02-11T00:54:22;21.20;;;9.07;;
70301;SDS011;57706;56.326;43.882;2023-02-11T00:56:48;22.63;;;9.38;;
70301;SDS011;57706;56.326;43.882;2023-02-11T00:59:15;24.17;;;10.00;;
70301;SDS011;57706;56.326;43.882;2023-02-11T01:01:42;20.30;;;10.45;;
70301;SDS011;57706;56.326;43.882;2023-02-11T01:04:08;16.38;;;8.18;;
70301;SDS011;57706;56.326;43.882;2023-02-11T01:06:34;19.90;;;8.50;;
70301;SDS011;57706;56.326;43.882;2023-02-11T01:09:00;23.95;;;9.05;;
70301;SDS011;57706;56.326;43.882;2023-02-11T01:11:25;20.45;;;8.52;;
70301;SDS011;57706;56.326;43.882;2023-02-11T01:13:51;20.65;;;8.98;;
70301;SDS011;57706;56.326;43.882;2023-02-11T01:16:17;19.40;;;10.00;;
70301;SDS011;57706;56.326;43.882;2023-02-11T01:18:44;19.08;;;8.23;;
70301;SDS011;57706;56.326;43.882;2023-02-11T01:21:10;19.60;;;8.07;;
70301;SDS011;57706;56.326;43.882;2023-02-11T01:23:36;22.15;;;8.38;;
70301;SDS011;57706;56.326;43.882;2023-02-11T01:26:20;20.52;;;8.50;;
70301;SDS011;57706;56.326;43.882;2023-02-11T01:28:46;17.25;;;7.88;;
70301;SDS011;57706;56.326;43.882;2023-02-11T01:31:12;18.23;;;8.30;;
70301;SDS011;57706;56.326;43.882;2023-02-11T01:33:38;22.42;;;10.25;;
70301;SDS011;57706;56.326;43.882;2023-02-11T01:36:05;20.45;;;9.80;;
70301;SDS011;57706;56.326;43.882;2023-02-11T01:38:32;16.70;;;7.15;;
70301;SDS011;57706;56.326;43.882;2023-02-11T01:40:59;24.23;;;10.70;;
70301;SDS011;57706;56.326;43.882;2023-02-11T01:43:33;19.75;;;8.80;;
70301;SDS011;57706;56.326;43.882;2023-02-11T01:48:37;22.85;;;9.45;;
70301;SDS011;57706;56.326;43.882;2023-02-11T01:51:17;18.02;;;8.20;;
70301;SDS011;57706;56.326;43.882;2023-02-11T01:53:46;18.45;;;8.30;;
70301;SDS011;57706;56.326;43.882;2023-02-11T01:56:33;18.33;;;7.07;;
70301;SDS011;57706;56.326;43.882;2023-02-11T01:59:28;20.48;;;9.35;;
70301;SDS011;57706;56.326;43.882;2023-02-11T02:02:01;20.33;;;8.50;;
70301;SDS011;57706;56.326;43.882;2023-02-11T02:04:32;21.00;;;9.80;;
70301;SDS011;57706;56.326;43.882;2023-02-11T02:07:07;20.67;;;9.27;;
70301;SDS011;57706;56.326;43.882;2023-02-11T02:09:45;18.23;;;8.10;;
70301;SDS011;57706;56.326;43.882;2023-02-11T02:12:17;23.33;;;9.88;;
70301;SDS011;57706;56.326;43.882;2023-02-11T02:14:42;23.30;;;9.80;;
70301;SDS011;57706;56.326;43.882;2023-02-11T02:17:21;21.80;;;9.90;;
70301;SDS011;57706;56.326;43.882;2023-02-11T02:26:06;17.98;;;8.95;;
70301;SDS011;57706;56.326;43.882;2023-02-11T02:28:57;17.65;;;9.25;;
70301;SDS011;57706;56.326;43.882;2023-02-11T02:37:46;18.45;;;7.32;;
70301;SDS011;57706;56.326;43.882;2023-02-11T02:40:19;13.38;;;6.85;;
70301;SDS011;57706;56.326;43.882;2023-02-11T02:42:49;20.02;;;9.80;;
70301;SDS011;57706;56.326;43.882;2023-02-11T02:45:17;22.40;;;10.35;;
70301;SDS011;57706;56.326;43.882;2023-02-11T02:47:44;21.40;;;9.48;;
70301;SDS011;57706;56.326;43.882;2023-02-11T02:50:10;19.73;;;10.05;;
70301;SDS011;57706;56.326;43.882;2023-02-11T02:55:44;19.15;;;9.23;;
70301;SDS011;57706;56.326;43.882;2023-02-11T03:12:35;21.33;;;9.27;;
70301;SDS011;57706;56.326;43.882;2023-02-11T03:15:02;20.70;;;9.65;;
70301;SDS011;57706;56.326;43.882;2023-02-11T03:17:31;18.90;;;7.72;;
70301;SDS011;57706;56.326;43.882;2023-02-11T03:20:00;24.13;;;10.40;;
70301;SDS011;57706;56.326;43.882;2023-02-11T03:22:31;24.38;;;10.20;;
70301;SDS011;57706;56.326;43.882;2023-02-11T03:25:01;20.58;;;10.80;;
70301;SDS011;57706;56.326;43.882;2023-02-11T03:27:46;22.35;;;9.73;;
70301;SDS011;57706;56.326;43.882;2023-02-11T03:30:19;20.00;;;9.60;;
70301;SDS011;57706;56.326;43.882;2023-02-11T03:32:56;19.90;;;8.50;;
70301;SDS011;57706;56.326;43.882;2023-02-11T03:35:47;20.33;;;9.18;;
70301;SDS011;57706;56.326;43.882;2023-02-11T03:38:43;21.05;;;9.20;;
70301;SDS011;57706;56.326;43.882;2023-02-11T03:41:14;18.80;;;9.02;;
70301;SDS011;57706;56.326;43.882;2023-02-11T03:43:44;23.98;;;10.60;;
70301;SDS011;57706;56.326;43.882;2023-02-11T03:46:13;21.58;;;9.07;;
70301;SDS011;57706;56.326;43.882;2023-02-11T03:48:44;20.17;;;9.75;;
70301;SDS011;57706;56.326;43.882;2023-02-11T03:51:14;18.90;;;8.88;;
70301;SDS011;57706;56.326;43.882;2023-02-11T03:53:41;24.27;;;9.60;;
70301;SDS011;57706;56.326;43.882;2023-02-11T03:56:09;17.45;;;7.47;;
70301;SDS011;57706;56.326;43.882;2023-02-11T03:58:39;16.65;;;7.28;;
70301;SDS011;57706;56.326;43.882;2023-02-11T04:01:05;22.73;;;10.18;;
70301;SDS011;57706;56.326;43.882;2023-02-11T04:03:34;16.48;;;8.88;;
70301;SDS011;57706;56.326;43.882;2023-02-11T04:06:00;18.92;;;9.63;;
70301;SDS011;57706;56.326;43.882;2023-02-11T04:08:26;21.77;;;8.23;;
70301;SDS011;57706;56.326;43.882;2023-02-11T04:10:52;19.30;;;9.32;;
70301;SDS011;57706;56.326;43.882;2023-02-11T04:13:17;18.85;;;7.70;;
70301;SDS011;57706;56.326;43.882;2023-02-11T04:15:43;13.13;;;6.25;;
70301;SDS011;57706;56.326;43.882;2023-02-11T04:18:09;19.17;;;8.50;;
70301;SDS011;57706;56.326;43.882;2023-02-11T04:20:35;20.10;;;7.32;;
70301;SDS011;57706;56.326;43.882;2023-02-11T04:23:01;16.70;;;6.82;;
70301;SDS011;57706;56.326;43.882;2023-02-11T04:25:26;17.90;;;8.27;;
70301;SDS011;57706;56.326;43.882;2023-02-11T04:27:52;15.30;;;8.15;;
70301;SDS011;57706;56.326;43.882;2023-02-11T04:30:18;21.83;;;8.75;;
70301;SDS011;57706;56.326;43.882;2023-02-11T04:32:44;20.02;;;7.80;;
70301;SDS011;57706;56.326;43.882;2023-02-11T04:35:10;19.75;;;9.07;;
70301;SDS011;57706;56.326;43.882;2023-02-11T04:37:35;23.70;;;9.10;;
70301;SDS011;57706;56.326;43.882;2023-02-11T04:40:01;19.48;;;7.93;;
70301;SDS011;57706;56.326;43.882;2023-02-11T04:42:29;22.80;;;8.73;;
70301;SDS011;57706;56.326;43.882;2023-02-11T04:44:55;22.20;;;10.32;;
70301;SDS011;57706;56.326;43.882;2023-02-11T04:47:20;18.60;;;9.05;;
70301;SDS011;57706;56.326;43.882;2023-02-11T04:49:46;25.85;;;10.07;;
70301;SDS011;57706;56.326;43.882;2023-02-11T04:52:12;20.95;;;9.23;;
70301;SDS011;57706;56.326;43.882;2023-02-11T04:54:38;19.88;;;9.25;;
70301;SDS011;57706;56.326;43.882;2023-02-11T04:57:04;23.33;;;9.52;;
70301;SDS011;57706;56.326;43.882;2023-02-11T04:59:30;17.75;;;7.80;;
70301;SDS011;57706;56.326;43.882;2023-02-11T05:01:55;17.80;;;9.20;;
70301;SDS011;57706;56.326;43.882;2023-02-11T05:04:21;16.20;;;7.55;;
70301;SDS011;57706;56.326;43.882;2023-02-11T05:06:47;23.13;;;9.90;;
70301;SDS011;57706;56.326;43.882;2023-02-11T05:09:13;20.95;;;10.63;;
70301;SDS011;57706;56.326;43.882;2023-02-11T05:11:39;25.02;;;9.93;;
70301;SDS011;57706;56.326;43.882;2023-02-11T05:14:05;18.58;;;8.45;;
70301;SDS011;57706;56.326;43.882;2023-02-11T05:16:31;19.73;;;8.85;;
70301;SDS011;57706;56.326;43.882;2023-02-11T05:18:57;16.20;;;7.65;;
70301;SDS011;57706;56.326;43.882;2023-02-11T05:21:23;16.65;;;8.00;;
70301;SDS011;57706;56.326;43.882;2023-02-11T05:23:49;15.88;;;8.63;;
70301;SDS011;57706;56.326;43.882;2023-02-11T05:26:15;18.73;;;8.68;;
70301;SDS011;57706;56.326;43.882;2023-02-11T05:28:41;21.65;;;8.80;;
70301;SDS011;57706;56.326;43.882;2023-02-11T05:31:08;17.30;;;8.68;;
70301;SDS011;57706;56.326;43.882;2023-02-11T05:33:35;18.40;;;7.88;;
70301;SDS011;57706;56.326;43.882;2023-02-11T05:36:05;19.05;;;9.32;;
70301;SDS011;57706;56.326;43.882;2023-02-11T05:38:33;23.38;;;9.55;;
70301;SDS011;57706;56.326;43.882;2023-02-11T05:40:59;21.13;;;9.93;;
70301;SDS011;57706;56.326;43.882;2023-02-11T05:43:26;19.88;;;8.80;;
70301;SDS011;57706;56.326;43.882;2023-02-11T05:45:52;21.42;;;8.73;;
70301;SDS011;57706;56.326;43.882;2023-02-11T05:48:18;21.02;;;8.10;;
70301;SDS011;57706;56.326;43.882;2023-02-11T05:50:44;18.10;;;7.75;;
70301;SDS011;57706;56.326;43.882;2023-02-11T05:53:10;20.33;;;8.70;;
70301;SDS011;57706;56.326;43.882;2023-02-11T05:55:36;37.83;;;9.90;;
70301;SDS011;57706;56.326;43.882;2023-02-11T05:58:02;21.27;;;9.63;;
70301;SDS011;57706;56.326;43.882;2023-02-11T06:00:29;22.33;;;8.63;;
70301;SDS011;57706;56.326;43.882;2023-02-11T06:02:55;23.83;;;10.55;;
70301;SDS011;57706;56.326;43.882;2023-02-11T06:05:21;19.75;;;8.88;;
70301;SDS011;57706;56.326;43.882;2023-02-11T06:07:47;17.33;;;7.20;;
70301;SDS011;57706;56.326;43.882;2023-02-11T06:10:12;18.02;;;9.27;;
70301;SDS011;57706;56.326;43.882;2023-02-11T06:12:38;20.40;;;9.68;;
70301;SDS011;57706;56.326;43.882;2023-02-11T06:15:04;23.33;;;9.75;;
70301;SDS011;57706;56.326;43.882;2023-02-11T06:17:31;19.85;;;8.50;;
70301;SDS011;57706;56.326;43.882;2023-02-11T06:19:58;22.38;;;8.93;;
70301;SDS011;57706;56.326;43.882;2023-02-11T06:22:25;21.60;;;8.45;;
70301;SDS011;57706;56.326;43.882;2023-02-11T06:24:51;19.15;;;8.68;;
70301;SDS011;57706;56.326;43.882;2023-02-11T06:27:17;19.13;;;8.35;;
70301;SDS011;57706;56.326;43.882;2023-02-11T06:29:43;19.13;;;6.90;;
70301;SDS011;57706;56.326;43.882;2023-02-11T06:32:11;20.95;;;9.75;;
70301;SDS011;57706;56.326;43.882;2023-02-11T06:34:37;19.08;;;7.93;;
70301;SDS011;57706;56.326;43.882;2023-02-11T06:39:47;15.82;;;7.78;;
70301;SDS011;57706;56.326;43.882;2023-02-11T06:42:13;21.17;;;8.55;;
70301;SDS011;57706;56.326;43.882;2023-02-11T06:44:39;16.75;;;6.63;;
70301;SDS011;57706;56.326;43.882;2023-02-11T06:47:04;17.13;;;8.43;;
70301;SDS011;57706;56.326;43.882;2023-02-11T06:49:31;16.13;;;8.13;;
70301;SDS011;57706;56.326;43.882;2023-02-11T06:51:58;20.77;;;7.72;;
70301;SDS011;57706;56.326;43.882;2023-02-11T06:54:24;18.15;;;7.30;;
70301;SDS011;57706;56.326;43.882;2023-02-11T06:56:50;17.77;;;7.72;;
70301;SDS011;57706;56.326;43.882;2023-02-11T06:59:34;16.83;;;7.95;;
70301;SDS011;57706;56.326;43.882;2023-02-11T07:02:00;20.10;;;7.82;;
70301;SDS011;57706;56.326;43.882;2023-02-11T07:04:26;16.30;;;6.78;;
70301;SDS011;57706;56.326;43.882;2023-02-11T07:09:36;14.52;;;7.65;;
70301;SDS011;57706;56.326;43.882;2023-02-11T07:12:01;19.92;;;7.78;;
70301;SDS011;57706;56.326;43.882;2023-02-11T07:14:27;16.38;;;7.38;;
70301;SDS011;57706;56.326;43.882;2023-02-11T07:16:53;16.52;;;8.07;;
70301;SDS011;57706;56.326;43.882;2023-02-11T07:19:19;13.73;;;6.40;;
70301;SDS011;57706;56.326;43.882;2023-02-11T07:21:45;21.33;;;8.10;;
70301;SDS011;57706;56.326;43.882;2023-02-11T07:24:11;19.10;;;8.02;;
70301;SDS011;57706;56.326;43.882;2023-02-11T07:26:37;18.10;;;7.97;;
70301;SDS011;57706;56.326;43.882;2023-02-11T07:29:03;17.90;;;7.45;;
70301;SDS011;57706;56.326;43.882;2023-02-11T07:31:29;12.70;;;6.55;;
70301;SDS011;57706;56.326;43.882;2023-02-11T07:33:57;20.38;;;8.18;;
70301;SDS011;57706;56.326;43.882;2023-02-11T07:36:25;19.50;;;7.40;;
70301;SDS011;57706;56.326;43.882;2023-02-11T07:38:51;13.15;;;6.18;;
70301;SDS011;57706;56.326;43.882;2023-02-11T07:41:18;15.60;;;6.38;;
70301;SDS011;57706;56.326;43.882;2023-02-11T07:43:45;16.35;;;7.80;;
70301;SDS011;57706;56.326;43.882;2023-02-11T07:46:13;15.05;;;7.50;;
70301;SDS011;57706;56.326;43.882;2023-02-11T07:48:41;16.50;;;7.20;;
70301;SDS011;57706;56.326;43.882;2023-02-11T07:51:18;18.58;;;7.28;;
70301;SDS011;57706;56.326;43.882;2023-02-11T07:53:45;20.75;;;8.48;;
70301;SDS011;57706;56.326;43.882;2023-02-11T07:56:13;16.40;;;6.97;;
70301;SDS011;57706;56.326;43.882;2023-02-11T07:58:40;15.98;;;7.38;;
70301;SDS011;57706;56.326;43.882;2023-02-11T08:01:11;15.38;;;6.95;;
70301;SDS011;57706;56.326;43.882;2023-02-11T08:03:41;16.15;;;7.07;;
70301;SDS011;57706;56.326;43.882;2023-02-11T08:06:09;19.42;;;7.43;;
70301;SDS011;57706;56.326;43.882;2023-02-11T08:08:56;15.98;;;6.20;;
70301;SDS011;57706;56.326;43.882;2023-02-11T08:11:40;17.92;;;8.50;;
70301;SDS011;57706;56.326;43.882;2023-02-11T08:14:07;14.52;;;7.18;;
70301;SDS011;57706;56.326;43.882;2023-02-11T08:16:33;14.00;;;5.97;;
70301;SDS011;57706;56.326;43.882;2023-02-11T08:19:02;12.95;;;6.72;;
70301;SDS011;57706;56.326;43.882;2023-02-11T08:21:39;15.23;;;7.38;;
70301;SDS011;57706;56.326;43.882;2023-02-11T08:24:05;19.38;;;7.97;;
70301;SDS011;57706;56.326;43.882;2023-02-11T08:26:32;14.07;;;6.70;;
70301;SDS011;57706;56.326;43.882;2023-02-11T08:29:00;20.52;;;6.47;;
70301;SDS011;57706;56.326;43.882;2023-02-11T08:31:31;10.07;;;5.35;;
70301;SDS011;57706;56.326;43.882;2023-02-11T08:33:59;19.10;;;8.50;;
70301;SDS011;57706;56.326;43.882;2023-02-11T08:36:31;13.90;;;6.55;;
70301;SDS011;57706;56.326;43.882;2023-02-11T08:38:59;17.27;;;7.22;;
70301;SDS011;57706;56.326;43.882;2023-02-11T08:41:28;14.45;;;7.13;;
70301;SDS011;57706;56.326;43.882;2023-02-11T08:43:54;13.85;;;6.60;;
70301;SDS011;57706;56.326;43.882;2023-02-11T08:46:20;20.65;;;7.65;;
70301;SDS011;57706;56.326;43.882;2023-02-11T08:48:46;16.77;;;6.97;;
70301;SDS011;57706;56.326;43.882;2023-02-11T08:51:13;19.33;;;7.57;;
70301;SDS011;57706;56.326;43.882;2023-02-11T08:54:02;19.27;;;7.57;;
70301;SDS011;57706;56.326;43.882;2023-02-11T08:56:28;15.10;;;7.38;;
70301;SDS011;57706;56.326;43.882;2023-02-11T08:58:55;13.32;;;5.82;;
70301;SDS011;57706;56.326;43.882;2023-02-11T09:01:22;19.98;;;7.18;;
70301;SDS011;57706;56.326;43.882;2023-02-11T09:03:53;14.98;;;6.32;;
70301;SDS011;57706;56.326;43.882;2023-02-11T09:06:20;19.33;;;7.78;;
70301;SDS011;57706;56.326;43.882;2023-02-11T09:08:48;15.80;;;7.40;;
70301;SDS011;57706;56.326;43.882;2023-02-11T09:11:16;18.70;;;6.50;;
70301;SDS011;57706;56.326;43.882;2023-02-11T09:13:44;12.48;;;5.88;;
70301;SDS011;57706;56.326;43.882;2023-02-11T09:16:18;14.88;;;7.28;;
70301;SDS011;57706;56.326;43.882;2023-02-11T09:18:46;14.45;;;5.72;;
70301;SDS011;57706;56.326;43.882;2023-02-11T09:21:12;12.80;;;5.75;;
70301;SDS011;57706;56.326;43.882;2023-02-11T09:23:39;15.65;;;7.28;;
70301;SDS011;57706;56.326;43.882;2023-02-11T09:26:15;14.00;;;6.05;;
70301;SDS011;57706;56.326;43.882;2023-02-11T09:28:42;12.90;;;5.38;;
70301;SDS011;57706;56.326;43.882;2023-02-11T09:31:10;12.25;;;5.97;;
70301;SDS011;57706;56.326;43.882;2023-02-11T09:33:40;15.20;;;5.95;;
70301;SDS011;57706;56.326;43.882;2023-02-11T09:36:12;15.35;;;7.43;;
70301;SDS011;57706;56.326;43.882;2023-02-11T09:38:50;10.50;;;4.82;;
70301;SDS011;57706;56.326;43.882;2023-02-11T09:43:54;20.50;;;6.90;;
70301;SDS011;57706;56.326;43.882;2023-02-11T09:46:41;13.65;;;5.22;;
70301;SDS011;57706;56.326;43.882;2023-02-11T09:49:14;11.82;;;6.13;;
70301;SDS011;57706;56.326;43.882;2023-02-11T09:51:46;10.73;;;4.80;;
70301;SDS011;57706;56.326;43.882;2023-02-11T09:56:45;14.95;;;6.10;;
70301;SDS011;57706;56.326;43.882;2023-02-11T09:59:14;10.77;;;5.30;;
70301;SDS011;57706;56.326;43.882;2023-02-11T10:01:46;13.32;;;5.95;;
70301;SDS011;57706;56.326;43.882;2023-02-11T10:23:14;13.82;;;7.07;;
70301;SDS011;57706;56.326;43.882;2023-02-11T10:25:45;10.55;;;5.35;;
70301;SDS011;57706;56.326;43.882;2023-02-11T10:28:18;13.30;;;7.75;;
70301;SDS011;57706;56.326;43.882;2023-02-11T10:30:56;14.88;;;5.82;;
70301;SDS011;57706;56.326;43.882;2023-02-11T10:36:09;13.43;;;7.05;;
70301;SDS011;57706;56.326;43.882;2023-02-11T10:38:37;11.90;;;5.63;;
70301;SDS011;57706;56.326;43.882;2023-02-11T10:41:03;12.00;;;6.28;;
70301;SDS011;57706;56.326;43.882;2023-02-11T10:43:47;12.48;;;5.93;;
70301;SDS011;57706;56.326;43.882;2023-02-11T10:46:16;10.50;;;4.78;;
70301;SDS011;57706;56.326;43.882;2023-02-11T10:48:46;11.32;;;5.35;;
70301;SDS011;57706;56.326;43.882;2023-02-11T10:56:36;15.00;;;7.22;;
70301;SDS011;57706;56.326;43.882;2023-02-11T10:59:32;13.18;;;6.82;;
70301;SDS011;57706;56.326;43.882;2023-02-11T11:02:05;12.57;;;6.10;;
70301;SDS011;57706;56.326;43.882;2023-02-11T11:04:42;14.05;;;6.55;;
70301;SDS011;57706;56.326;43.882;2023-02-11T11:10:00;11.55;;;6.35;;
70301;SDS011;57706;56.326;43.882;2023-02-11T11:12:49;13.60;;;6.57;;
70301;SDS011;57706;56.326;43.882;2023-02-11T11:15:17;10.18;;;5.53;;
70301;SDS011;57706;56.326;43.882;2023-02-11T11:17:44;11.60;;;6.40;;
70301;SDS011;57706;56.326;43.882;2023-02-11T11:25:35;13.95;;;5.25;;
70301;SDS011;57706;56.326;43.882;2023-02-11T11:28:04;11.88;;;5.88;;
70301;SDS011;57706;56.326;43.882;2023-02-11T11:30:33;10.85;;;4.78;;
70301;SDS011;57706;56.326;43.882;2023-02-11T11:33:13;9.60;;;4.85;;
70301;SDS011;57706;56.326;43.882;2023-02-11T11:35:53;11.93;;;5.40;;
70301;SDS011;57706;56.326;43.882;2023-02-11T11:38:23;11.90;;;5.28;;
70301;SDS011;57706;56.326;43.882;2023-02-11T11:41:11;11.68;;;5.45;;
70301;SDS011;57706;56.326;43.882;2023-02-11T11:43:56;16.05;;;6.18;;
70301;SDS011;57706;56.326;43.882;2023-02-11T11:46:22;13.52;;;6.38;;
70301;SDS011;57706;56.326;43.882;2023-02-11T11:48:51;13.77;;;5.95;;
70301;SDS011;57706;56.326;43.882;2023-02-11T11:51:22;13.98;;;6.00;;
70301;SDS011;57706;56.326;43.882;2023-02-11T11:53:52;14.55;;;6.63;;
70301;SDS011;57706;56.326;43.882;2023-02-11T11:56:48;12.55;;;6.03;;
70301;SDS011;57706;56.326;43.882;2023-02-11T11:59:19;7.10;;;4.07;;
70301;SDS011;57706;56.326;43.882;2023-02-11T12:12:55;13.50;;;5.32;;
70301;SDS011;57706;56.326;43.882;2023-02-11T12:18:16;9.55;;;5.18;;
70301;SDS011;57706;56.326;43.882;2023-02-11T12:24:01;16.13;;;5.90;;
70301;SDS011;57706;56.326;43.882;2023-02-11T12:32:01;12.80;;;5.43;;
70301;SDS011;57706;56.326;43.882;2023-02-11T12:43:24;11.73;;;4.32;;
70301;SDS011;57706;56.326;43.882;2023-02-11T12:46:10;9.88;;;4.95;;
70301;SDS011;57706;56.326;43.882;2023-02-11T13:02:32;9.77;;;4.25;;
70301;SDS011;57706;56.326;43.882;2023-02-11T13:05:00;11.43;;;4.25;;
70301;SDS011;57706;56.326;43.882;2023-02-11T13:07:40;11.82;;;4.60;;
70301;SDS011;57706;56.326;43.882;2023-02-11T13:12:38;12.30;;;4.90;;
70301;SDS011;57706;56.326;43.882;2023-02-11T13:15:28;12.50;;;4.43;;
70301;SDS011;57706;56.326;43.882;2023-02-11T13:26:25;11.52;;;4.35;;
70301;SDS011;57706;56.326;43.882;2023-02-11T13:29:14;13.07;;;4.90;;
70301;SDS011;57706;56.326;43.882;2023-02-11T13:32:04;10.27;;;4.85;;
70301;SDS011;57706;56.326;43.882;2023-02-11T13:37:18;14.50;;;4.95;;
70301;SDS011;57706;56.326;43.882;2023-02-11T13:40:01;11.98;;;5.57;;
70301;SDS011;57706;56.326;43.882;2023-02-11T13:42:31;17.08;;;5.45;;
70301;SDS011;57706;56.326;43.882;2023-02-11T13:44:58;13.98;;;5.40;;
70301;SDS011;57706;56.326;43.882;2023-02-11T13:47:26;12.63;;;6.30;;
70301;SDS011;57706;56.326;43.882;2023-02-11T13:49:56;15.95;;;6.43;;
70301;SDS011;57706;56.326;43.882;2023-02-11T13:52:24;15.95;;;5.50;;
70301;SDS011;57706;56.326;43.882;2023-02-11T13:54:54;14.93;;;4.72;;
70301;SDS011;57706;56.326;43.882;2023-02-11T13:59:56;10.05;;;4.22;;
70301;SDS011;57706;56.326;43.882;2023-02-11T14:05:35;12.80;;;5.75;;
70301;SDS011;57706;56.326;43.882;2023-02-11T14:08:20;12.70;;;5.85;;
70301;SDS011;57706;56.326;43.882;2023-02-11T14:11:08;14.43;;;5.03;;
70301;SDS011;57706;56.326;43.882;2023-02-11T14:16:20;9.75;;;3.92;;
70301;SDS011;57706;56.326;43.882;2023-02-11T14:23:42;15.93;;;5.55;;
70301;SDS011;57706;56.326;43.882;2023-02-11T14:29:05;13.13;;;4.78;;
70301;SDS011;57706;56.326;43.882;2023-02-11T14:31:42;16.67;;;5.13;;
70301;SDS011;57706;56.326;43.882;2023-02-11T14:42:21;22.10;;;6.40;;
70301;SDS011;57706;56.326;43.882;2023-02-11T14:44:51;16.60;;;6.57;;
70301;SDS011;57706;56.326;43.882;2023-02-11T14:47:28;23.65;;;6.05;;
70301;SDS011;57706;56.326;43.882;2023-02-11T14:50:01;16.77;;;5.57;;
70301;SDS011;57706;56.326;43.882;2023-02-11T14:52:29;11.65;;;4.78;;
70301;SDS011;57706;56.326;43.882;2023-02-11T14:55:17;12.40;;;5.43;;
70301;SDS011;57706;56.326;43.882;2023-02-11T15:00:31;17.70;;;5.38;;
70301;SDS011;57706;56.326;43.882;2023-02-11T15:02:57;15.93;;;5.88;;
70301;SDS011;57706;56.326;43.882;2023-02-11T15:05:24;24.52;;;5.72;;
70301;SDS011;57706;56.326;43.882;2023-02-11T15:07:52;15.20;;;5.68;;
70301;SDS011;57706;56.326;43.882;2023-02-11T15:10:31;15.85;;;6.03;;
70301;SDS011;57706;56.326;43.882;2023-02-11T15:13:13;11.75;;;5.28;;
70301;SDS011;57706;56.326;43.882;2023-02-11T15:15:44;11.65;;;5.18;;
70301;SDS011;57706;56.326;43.882;2023-02-11T15:18:16;15.27;;;5.25;;
70301;SDS011;57706;56.326;43.882;2023-02-11T15:21:05;13.57;;;5.85;;
70301;SDS011;57706;56.326;43.882;2023-02-11T15:23:32;14.02;;;5.68;;
70301;SDS011;57706;56.326;43.882;2023-02-11T15:25:58;12.45;;;5.10;;
70301;SDS011;57706;56.326;43.882;2023-02-11T15:28:32;20.02;;;6.80;;
70301;SDS011;57706;56.326;43.882;2023-02-11T15:31:03;18.95;;;7.68;;
70301;SDS011;57706;56.326;43.882;2023-02-11T15:33:31;18.95;;;6.25;;
70301;SDS011;57706;56.326;43.882;2023-02-11T15:35:57;12.95;;;5.05;;
70301;SDS011;57706;56.326;43.882;2023-02-11T15:38:43;18.85;;;5.65;;
70301;SDS011;57706;56.326;43.882;2023-02-11T15:43:59;10.60;;;5.18;;
70301;SDS011;57706;56.326;43.882;2023-02-11T15:46:24;14.90;;;5.35;;
70301;SDS011;57706;56.326;43.882;2023-02-11T15:49:01;11.43;;;4.47;;
70301;SDS011;57706;56.326;43.882;2023-02-11T15:51:30;13.68;;;4.75;;
70301;SDS011;57706;56.326;43.882;2023-02-11T15:54:03;13.07;;;4.90;;
70301;SDS011;57706;56.326;43.882;2023-02-11T15:56:37;11.98;;;4.03;;
70301;SDS011;57706;56.326;43.882;2023-02-11T15:59:10;17.33;;;4.50;;
70301;SDS011;57706;56.326;43.882;2023-02-11T16:01:40;14.63;;;5.13;;
70301;SDS011;57706;56.326;43.882;2023-02-11T16:04:12;10.98;;;5.63;;
70301;SDS011;57706;56.326;43.882;2023-02-11T16:06:43;14.13;;;5.43;;
70301;SDS011;57706;56.326;43.882;2023-02-11T16:09:21;13.23;;;6.07;;
70301;SDS011;57706;56.326;43.882;2023-02-11T16:17:54;15.32;;;6.30;;
70301;SDS011;57706;56.326;43.882;2023-02-11T16:20:20;15.45;;;5.82;;
70301;SDS011;57706;56.326;43.882;2023-02-11T16:22:46;19.77;;;6.30;;
70301;SDS011;57706;56.326;43.882;2023-02-11T16:25:16;12.98;;;5.95;;
70301;SDS011;57706;56.326;43.882;2023-02-11T16:27:46;9.93;;;4.85;;
70301;SDS011;57706;56.326;43.882;2023-02-11T16:32:55;13.45;;;6.20;;
70301;SDS011;57706;56.326;43.882;2023-02-11T16:35:20;15.95;;;6.95;;
70301;SDS011;57706;56.326;43.882;2023-02-11T16:37:46;15.00;;;5.88;;
70301;SDS011;57706;56.326;43.882;2023-02-11T16:40:12;13.13;;;6.05;;
70301;SDS011;57706;56.326;43.882;2023-02-11T16:42:38;16.98;;;7.72;;
70301;SDS011;57706;56.326;43.882;2023-02-11T16:47:48;27.92;;;6.82;;
70301;SDS011;57706;56.326;43.882;2023-02-11T16:50:18;17.35;;;6.80;;
70301;SDS011;57706;56.326;43.882;2023-02-11T16:55:12;17.67;;;7.68;;
70301;SDS011;57706;56.326;43.882;2023-02-11T16:57:38;16.95;;;6.35;;
70301;SDS011;57706;56.326;43.882;2023-02-11T17:00:05;17.13;;;8.10;;
70301;SDS011;57706;56.326;43.882;2023-02-11T17:02:32;14.40;;;6.13;;
70301;SDS011;57706;56.326;43.882;2023-02-11T17:05:00;17.33;;;6.93;;
70301;SDS011;57706;56.326;43.882;2023-02-11T17:07:29;16.80;;;6.38;;
70301;SDS011;57706;56.326;43.882;2023-02-11T17:09:55;13.48;;;6.25;;
70301;SDS011;57706;56.326;43.882;2023-02-11T17:12:21;17.08;;;7.25;;
70301;SDS011;57706;56.326;43.882;2023-02-11T17:15:08;18.55;;;6.40;;
70301;SDS011;57706;56.326;43.882;2023-02-11T17:17:34;17.75;;;7.22;;
70301;SDS011;57706;56.326;43.882;2023-02-11T17:20:19;18.45;;;7.65;;
70301;SDS011;57706;56.326;43.882;2023-02-11T17:22:45;15.32;;;7.53;;
70301;SDS011;57706;56.326;43.882;2023-02-11T17:25:10;16.83;;;6.75;;
70301;SDS011;57706;56.326;43.882;2023-02-11T17:27:36;18.83;;;6.57;;
70301;SDS011;57706;56.326;43.882;2023-02-11T17:30:02;14.00;;;5.97;;
70301;SDS011;57706;56.326;43.882;2023-02-11T17:32:29;19.70;;;7.60;;
70301;SDS011;57706;56.326;43.882;2023-02-11T17:34:55;18.67;;;7.45;;
70301;SDS011;57706;56.326;43.882;2023-02-11T17:37:21;15.90;;;7.07;;